Time;durP1;ratioP1;P1;durP2;ratioP2;P2;SDS_P1;SDS_P2;PMS_P1;PMS_P2;Temp;Humidity;BMP_temperature;BMP_pressure;BME280_temperature;BME280_humidity;BME280_pressure;Samples;Min_cycle;Max_cycle;Signal;HPM_P1;HPM_P2
2024/03/15 00:02:20;;;;;;;7.93;3.50;;;;;;;9.85;100.00;100579.03;5012200;28;20474;-69
2024/03/15 00:04:47;;;;;;;12.63;3.40;;;;;;;9.84;100.00;100577.44;5012097;28;20945;-69
2024/03/15 00:07:13;;;;;;;7.97;2.47;;;;;;;9.83;100.00;100573.13;5012039;28;20475;-69
2024/03/15 00:09:40;;;;;;;5.40;2.37;;;;;;;9.84;100.00;100577.44;5012020;28;20448;-69
2024/03/15 00:12:07;;;;;;;6.77;2.47;;;;;;;9.85;100.00;100572.81;5011634;28;20499;-69
2024/03/15 00:14:34;;;;;;;4.40;2.17;;;;;;;9.89;100.00;100567.63;5013766;28;20444;-69
2024/03/15 00:17:00;;;;;;;4.33;2.00;;;;;;;9.89;100.00;100554.09;5015613;28;20892;-69
2024/03/15 00:19:27;;;;;;;8.63;3.40;;;;;;;9.86;100.00;100553.59;5015563;28;20523;-69
2024/03/15 00:21:54;;;;;;;5.80;2.83;;;;;;;9.86;100.00;100553.59;5015309;28;20479;-69
2024/03/15 00:24:20;;;;;;;8.87;3.30;;;;;;;9.87;100.00;100546.25;5015442;28;20823;-69
2024/03/15 00:26:47;;;;;;;5.43;2.33;;;;;;;9.86;100.00;100545.47;5015083;28;20490;-69
2024/03/15 00:29:14;;;;;;;5.30;2.20;;;;;;;9.92;100.00;100542.69;5015341;28;20518;-69
2024/03/15 00:31:41;;;;;;;5.97;3.07;;;;;;;9.92;100.00;100559.72;5015321;28;20436;-69
2024/03/15 00:34:07;;;;;;;7.13;2.90;;;;;;;9.95;100.00;100553.69;5015204;28;20499;-69
2024/03/15 00:36:35;;;;;;;6.13;2.87;;;;;;;9.95;100.00;100545.59;5015198;28;20519;-70
2024/03/15 00:39:02;;;;;;;7.70;3.20;;;;;;;10.00;100.00;100545.50;5014814;28;20514;-70
2024/03/15 00:41:29;;;;;;;4.80;2.50;;;;;;;9.94;100.00;100535.06;5015067;28;20573;-69
2024/03/15 00:43:55;;;;;;;8.10;3.03;;;;;;;9.92;100.00;100531.88;5014965;28;20885;-70
2024/03/15 00:46:22;;;;;;;7.83;2.87;;;;;;;9.89;100.00;100521.63;5014806;28;20467;-70
2024/03/15 00:48:49;;;;;;;4.67;2.30;;;;;;;9.86;100.00;100515.72;5014946;28;20476;-70
2024/03/15 00:51:16;;;;;;;6.10;2.60;;;;;;;9.91;100.00;100527.53;5014635;28;20995;-70
2024/03/15 00:53:43;;;;;;;6.20;3.20;;;;;;;9.86;100.00;100520.31;5014824;28;20464;-70
2024/03/15 00:56:10;;;;;;;5.00;2.40;;;;;;;9.85;100.00;100513.31;5014603;28;21011;-70
2024/03/15 00:58:37;;;;;;;7.93;3.57;;;;;;;9.88;100.00;100518.13;5014811;28;20452;-69
2024/03/15 01:01:04;;;;;;;7.87;3.47;;;;;;;9.95;100.00;100505.00;5014893;28;20907;-69
2024/03/15 01:03:31;;;;;;;5.23;2.80;;;;;;;9.95;100.00;100502.28;5014308;28;20840;-69
2024/03/15 01:05:58;;;;;;;8.60;3.90;;;;;;;10.02;100.00;100502.72;5014319;28;20479;-69
2024/03/15 01:08:25;;;;;;;5.13;2.90;;;;;;;10.08;100.00;100503.41;5014246;28;20928;-69
2024/03/15 01:10:52;;;;;;;4.60;2.63;;;;;;;10.08;100.00;100506.13;5014554;28;20523;-69
2024/03/15 01:13:18;;;;;;;6.70;3.37;;;;;;;10.11;100.00;100506.34;5014131;28;20495;-69
2024/03/15 01:15:45;;;;;;;8.50;2.73;;;;;;;10.11;100.00;100506.34;5014529;28;20444;-68
2024/03/15 01:18:12;;;;;;;7.80;3.50;;;;;;;10.12;100.00;100507.13;5014413;28;20531;-68
2024/03/15 01:20:39;;;;;;;7.87;3.33;;;;;;;10.10;100.00;100495.81;5014479;28;20917;-69
2024/03/15 01:23:05;;;;;;;9.10;4.17;;;;;;;10.07;100.00;100497.22;5013924;28;21091;-69
2024/03/15 01:25:35;;;;;;;6.87;3.67;;;;;;;10.11;100.00;100492.00;5028766;22;20571;-69
2024/03/15 01:28:01;;;;;;;5.80;3.00;;;;;;;10.16;100.00;100489.19;4998575;28;20455;-68
2024/03/15 01:30:30;;;;;;;6.83;2.97;;;;;;;10.17;100.00;100488.09;4997735;28;20479;-68
2024/03/15 01:32:57;;;;;;;8.80;4.10;;;;;;;10.13;100.00;100483.56;4998106;28;20478;-68
2024/03/15 01:35:23;;;;;;;7.53;3.60;;;;;;;10.14;100.00;100479.75;4997840;28;20446;-68
2024/03/15 01:37:50;;;;;;;6.00;3.20;;;;;;;10.14;100.00;100471.63;4997589;28;20448;-68
2024/03/15 01:40:17;;;;;;;7.47;3.50;;;;;;;10.15;100.00;100471.34;4997403;28;21031;-68
2024/03/15 01:42:44;;;;;;;7.20;3.47;;;;;;;10.12;100.00;100482.78;4997807;28;20526;-70
2024/03/15 01:45:11;;;;;;;6.60;2.90;;;;;;;10.09;100.00;100475.25;4997672;28;20456;-68
2024/03/15 01:47:38;;;;;;;8.80;3.57;;;;;;;10.08;100.00;100485.28;4997751;28;20523;-68
2024/03/15 01:50:07;;;;;;;7.07;3.50;;;;;;;10.12;100.00;100474.66;4997654;28;20527;-69
2024/03/15 01:52:34;;;;;;;7.50;4.37;;;;;;;10.05;100.00;100479.69;4997573;28;20460;-68
2024/03/15 01:55:01;;;;;;;9.07;4.73;;;;;;;9.99;100.00;100467.34;4997298;28;20920;-68
2024/03/15 01:57:28;;;;;;;7.50;3.03;;;;;;;9.94;100.00;100481.75;4997262;28;20436;-68
2024/03/15 01:59:56;;;;;;;4.77;2.37;;;;;;;9.89;100.00;100489.19;4997089;28;21006;-69
2024/03/15 02:02:25;;;;;;;5.33;3.00;;;;;;;9.91;100.00;100478.84;4997477;28;20495;-69
2024/03/15 02:04:54;;;;;;;7.67;3.27;;;;;;;9.91;100.00;100468.03;4997615;28;20452;-69
2024/03/15 02:07:21;;;;;;;5.63;3.40;;;;;;;9.85;100.00;100478.94;4997450;28;20472;-69
2024/03/15 02:09:48;;;;;;;7.57;3.53;;;;;;;9.86;100.00;100466.22;4997269;28;20472;-69
2024/03/15 02:12:14;;;;;;;8.00;3.90;;;;;;;9.89;100.00;100470.25;4996871;28;20865;-69
2024/03/15 02:14:41;;;;;;;13.80;3.83;;;;;;;9.86;100.00;100452.69;4997191;28;20451;-69
2024/03/15 02:17:08;;;;;;;8.40;3.70;;;;;;;9.88;100.00;100457.81;4996821;28;20444;-69
2024/03/15 02:19:35;;;;;;;7.53;3.50;;;;;;;9.86;100.00;100453.47;4997096;28;20474;-67
2024/03/15 02:22:01;;;;;;;8.17;3.30;;;;;;;9.88;100.00;100457.81;4996852;28;20494;-67
2024/03/15 02:24:28;;;;;;;11.53;4.53;;;;;;;9.94;100.00;100445.78;4997252;28;20447;-67
2024/03/15 02:26:55;;;;;;;7.53;3.07;;;;;;;9.93;100.00;100452.31;4996850;28;20479;-68
2024/03/15 02:29:22;;;;;;;5.20;3.30;;;;;;;9.88;100.00;100447.00;4996629;28;20442;-68
2024/03/15 02:31:49;;;;;;;6.53;3.47;;;;;;;9.89;100.00;100454.00;4996882;28;20472;-68
2024/03/15 02:34:16;;;;;;;5.37;2.70;;;;;;;9.85;100.00;100454.59;4996517;28;20471;-68
2024/03/15 02:36:42;;;;;;;10.33;3.37;;;;;;;9.82;100.00;100452.47;4995875;28;20966;-68
2024/03/15 02:39:09;;;;;;;5.53;2.87;;;;;;;9.82;100.00;100449.78;4997095;28;20444;-68
2024/03/15 02:41:39;;;;;;;8.10;3.27;;;;;;;9.84;100.00;100449.50;4997491;28;20464;-68
2024/03/15 02:44:06;;;;;;;6.27;2.77;;;;;;;9.83;100.00;100447.91;4996691;28;20510;-68
2024/03/15 02:46:33;;;;;;;9.57;3.20;;;;;;;9.84;100.00;100455.69;4996574;28;20518;-68
2024/03/15 02:49:00;;;;;;;5.80;3.40;;;;;;;9.80;100.00;100449.28;4996933;28;20436;-68
2024/03/15 02:51:26;;;;;;;5.97;3.50;;;;;;;9.78;100.00;100447.97;4996710;28;20538;-68
2024/03/15 02:53:54;;;;;;;6.67;2.77;;;;;;;9.74;100.00;100444.25;4996519;28;20460;-68
2024/03/15 02:56:21;;;;;;;8.00;3.43;;;;;;;9.68;100.00;100451.66;4996654;28;20440;-68
2024/03/15 02:58:47;;;;;;;5.97;2.90;;;;;;;9.63;100.00;100449.06;4996507;28;20567;-68
2024/03/15 03:01:14;;;;;;;10.00;3.73;;;;;;;9.58;100.00;100441.84;4996799;28;20487;-68
2024/03/15 03:03:41;;;;;;;4.93;2.60;;;;;;;9.52;100.00;100436.84;4996125;28;20551;-69
2024/03/15 03:06:07;;;;;;;7.43;4.00;;;;;;;9.47;100.00;100445.00;4996116;28;21039;-68
2024/03/15 03:08:35;;;;;;;6.83;3.40;;;;;;;9.49;100.00;100438.22;4996385;28;20519;-68
2024/03/15 03:11:06;;;;;;;6.33;3.53;;;;;;;9.54;100.00;100434.63;4996567;28;20842;-69
2024/03/15 03:13:33;;;;;;;5.80;2.87;;;;;;;9.51;100.00;100429.78;4996923;28;20464;-68
2024/03/15 03:16:00;;;;;;;6.77;3.20;;;;;;;9.49;100.00;100432.00;4996532;28;20444;-68
2024/03/15 03:18:26;;;;;;;4.70;2.67;;;;;;;9.49;100.00;100432.00;4996380;28;20440;-68
2024/03/15 03:20:53;;;;;;;8.50;2.87;;;;;;;9.50;100.00;100425.50;4996062;28;20471;-68
2024/03/15 03:23:20;;;;;;;7.70;3.17;;;;;;;9.53;100.00;100427.63;4996169;28;20488;-68
2024/03/15 03:25:47;;;;;;;5.90;2.97;;;;;;;9.59;100.00;100421.00;4996209;28;20452;-69
2024/03/15 03:28:14;;;;;;;7.30;3.73;;;;;;;9.62;100.00;100423.13;4996692;28;20490;-68
2024/03/15 03:30:41;;;;;;;5.10;2.63;;;;;;;9.64;100.00;100422.81;4996141;28;20444;-68
2024/03/15 03:33:08;;;;;;;4.63;2.60;;;;;;;9.66;100.00;100416.00;4995967;28;20466;-68
2024/03/15 03:35:34;;;;;;;6.50;3.63;;;;;;;9.67;100.00;100416.81;4996174;28;20541;-68
2024/03/15 03:38:02;;;;;;;7.50;3.80;;;;;;;9.67;100.00;100412.19;4996091;28;20551;-68
2024/03/15 03:40:29;;;;;;;5.93;3.93;;;;;;;9.66;100.00;100413.31;4996227;28;20444;-68
2024/03/15 03:42:56;;;;;;;6.80;3.30;;;;;;;9.69;100.00;100417.31;4995760;28;20494;-68
2024/03/15 03:45:22;;;;;;;7.40;3.40;;;;;;;9.68;100.00;100413.81;4995936;28;20527;-68
2024/03/15 03:47:49;;;;;;;6.70;4.00;;;;;;;9.71;100.00;100407.81;4996904;28;20535;-68
2024/03/15 03:50:17;;;;;;;6.70;3.30;;;;;;;9.69;100.00;100410.00;4999922;28;20463;-68
2024/03/15 03:52:44;;;;;;;6.63;3.43;;;;;;;9.71;100.00;100412.41;5000199;28;20467;-68
2024/03/15 03:55:10;;;;;;;7.53;3.00;;;;;;;9.67;100.00;100393.28;4999587;28;20474;-68
2024/03/15 03:57:37;;;;;;;11.40;4.73;;;;;;;9.69;100.00;100391.06;4999677;28;20448;-68
2024/03/15 04:00:14;;;;;;;6.27;2.83;;;;;;;9.70;100.00;100398.09;4999374;28;20947;-68
2024/03/15 04:02:44;;;;;;;6.80;3.07;;;;;;;9.69;100.00;100399.16;5000928;28;20502;-68
2024/03/15 04:05:12;;;;;;;7.10;3.03;;;;;;;9.65;100.00;100397.38;4999968;28;20482;-68
2024/03/15 04:07:39;;;;;;;7.30;4.07;;;;;;;9.61;100.00;100397.19;5000206;28;20452;-68
2024/03/15 04:10:06;;;;;;;4.80;2.40;;;;;;;9.54;100.00;100391.34;4999316;28;20439;-68
2024/03/15 04:12:33;;;;;;;7.80;3.90;;;;;;;9.51;100.00;100394.66;4999144;28;20823;-68
2024/03/15 04:15:00;;;;;;;5.20;2.60;;;;;;;9.45;100.00;100387.75;4999406;28;20454;-68
2024/03/15 04:17:27;;;;;;;9.47;4.20;;;;;;;9.41;100.00;100392.13;4999169;28;20928;-68
2024/03/15 04:19:54;;;;;;;5.27;2.77;;;;;;;9.44;100.00;100395.06;4999214;28;20892;-68
2024/03/15 04:22:21;;;;;;;7.60;3.73;;;;;;;9.47;100.00;100393.63;4999022;28;20495;-69
2024/03/15 04:24:49;;;;;;;8.40;4.57;;;;;;;9.44;100.00;100392.34;4999633;28;20445;-68
2024/03/15 04:27:16;;;;;;;8.50;3.93;;;;;;;9.45;100.00;100390.44;4998990;28;20460;-68
2024/03/15 04:29:43;;;;;;;5.23;2.67;;;;;;;9.45;100.00;100382.34;4998757;28;20440;-68
2024/03/15 04:32:10;;;;;;;6.33;2.90;;;;;;;9.40;100.00;100393.25;4998909;28;20488;-68
2024/03/15 04:34:38;;;;;;;7.97;3.40;;;;;;;9.38;100.00;100385.41;4998959;28;20475;-68
2024/03/15 04:37:05;;;;;;;5.00;2.93;;;;;;;9.41;100.00;100387.53;4998705;28;20931;-67
2024/03/15 04:39:32;;;;;;;7.80;3.77;;;;;;;9.41;100.00;100400.25;4998523;28;20474;-67
2024/03/15 04:41:58;;;;;;;5.37;3.07;;;;;;;9.45;100.00;100390.44;4998894;28;20487;-69
2024/03/15 04:44:25;;;;;;;9.23;3.87;;;;;;;9.48;100.00;100390.66;4998432;28;20502;-68
2024/03/15 04:46:52;;;;;;;5.47;2.83;;;;;;;9.47;100.00;100390.94;4998425;28;20879;-68
2024/03/15 04:49:18;;;;;;;10.30;4.10;;;;;;;9.46;100.00;100389.34;4998807;28;20476;-68
2024/03/15 04:51:45;;;;;;;12.40;4.47;;;;;;;9.42;100.00;100377.50;4998438;28;20927;-68
2024/03/15 04:54:12;;;;;;;7.77;3.90;;;;;;;9.44;100.00;100386.16;4998660;28;20448;-68
2024/03/15 04:56:38;;;;;;;7.83;3.93;;;;;;;9.46;100.00;100386.63;4998378;28;20476;-67
2024/03/15 04:59:06;;;;;;;5.90;2.70;;;;;;;9.43;100.00;100384.50;4997888;28;20440;-66
2024/03/15 05:01:33;;;;;;;14.87;5.00;;;;;;;9.43;100.00;100376.41;4998327;28;20444;-66
2024/03/15 05:03:59;;;;;;;6.30;3.33;;;;;;;9.44;100.00;100380.75;4998428;28;20547;-66
2024/03/15 05:06:26;;;;;;;6.00;3.17;;;;;;;9.45;100.00;100382.34;4998184;28;20959;-67
2024/03/15 05:08:53;;;;;;;8.33;3.53;;;;;;;9.42;100.00;100381.00;4998149;28;20444;-67
2024/03/15 05:11:19;;;;;;;5.57;3.40;;;;;;;9.40;100.00;100382.44;4998464;28;20951;-67
2024/03/15 05:13:46;;;;;;;5.97;3.30;;;;;;;9.41;100.00;100381.31;4998411;28;20491;-67
2024/03/15 05:16:14;;;;;;;7.13;3.20;;;;;;;9.37;100.00;100370.31;4998093;28;20932;-67
2024/03/15 05:18:41;;;;;;;6.10;3.70;;;;;;;9.32;100.00;100376.59;4998643;28;20444;-67
2024/03/15 05:21:09;;;;;;;9.00;4.10;;;;;;;9.32;100.00;100384.72;4998472;28;20456;-67
2024/03/15 05:23:36;;;;;;;9.60;3.40;;;;;;;9.31;100.00;100377.72;4998027;28;20494;-67
2024/03/15 05:26:05;;;;;;;8.67;2.93;;;;;;;9.32;100.00;100373.91;4997905;28;20455;-67
2024/03/15 05:28:32;;;;;;;9.00;3.57;;;;;;;9.32;100.00;100373.91;4998428;28;20554;-67
2024/03/15 05:30:59;;;;;;;5.83;2.80;;;;;;;9.29;100.00;100373.69;4998078;28;21000;-68
2024/03/15 05:33:25;;;;;;;7.07;3.13;;;;;;;9.24;100.00;100376.47;4997981;28;20539;-67
2024/03/15 05:35:52;;;;;;;9.57;3.63;;;;;;;9.25;100.00;100378.06;4997564;28;20584;-67
2024/03/15 05:38:19;;;;;;;7.80;3.50;;;;;;;9.24;100.00;100377.28;4997987;28;20467;-68
2024/03/15 05:40:46;;;;;;;7.47;3.60;;;;;;;9.23;100.00;100375.69;4997868;28;20519;-67
2024/03/15 05:43:14;;;;;;;7.93;3.83;;;;;;;9.19;100.00;100369.25;4997750;28;20523;-67
2024/03/15 05:45:41;;;;;;;6.97;3.43;;;;;;;9.23;100.00;100375.69;4997685;28;20928;-67
2024/03/15 05:48:08;;;;;;;6.03;3.03;;;;;;;9.23;100.00;100380.28;4997535;28;20534;-67
2024/03/15 05:50:35;;;;;;;8.67;3.67;;;;;;;9.24;100.00;100379.19;4997545;28;20472;-67
2024/03/15 05:53:01;;;;;;;5.57;3.00;;;;;;;9.22;100.00;100371.38;4997179;28;20484;-67
2024/03/15 05:55:28;;;;;;;6.67;4.07;;;;;;;9.24;100.00;100376.47;4997450;28;20444;-67
2024/03/15 05:57:55;;;;;;;9.33;3.63;;;;;;;9.25;100.00;100376.19;4996919;28;21015;-67
2024/03/15 06:00:23;;;;;;;8.90;4.10;;;;;;;9.27;100.00;100371.28;4996930;28;20966;-67
2024/03/15 06:02:50;;;;;;;8.20;3.17;;;;;;;9.29;100.00;100374.47;4996930;28;20869;-67
2024/03/15 06:05:18;;;;;;;6.03;2.77;;;;;;;9.32;100.00;100373.91;4997567;28;20459;-67
2024/03/15 06:07:45;;;;;;;9.90;4.77;;;;;;;9.35;100.00;100369.81;4997428;28;20451;-67
2024/03/15 06:10:13;;;;;;;12.43;3.40;;;;;;;9.33;100.00;100369.28;4997304;28;20447;-67
2024/03/15 06:12:40;;;;;;;7.00;3.77;;;;;;;9.34;100.00;100363.59;4996165;28;20972;-67
2024/03/15 06:15:09;;;;;;;12.37;4.30;;;;;;;9.38;100.00;100371.09;4997083;28;20463;-67
2024/03/15 06:17:36;;;;;;;10.77;3.57;;;;;;;9.43;100.00;100379.94;4997388;28;20814;-67
2024/03/15 06:20:04;;;;;;;12.77;4.33;;;;;;;9.48;100.00;100376.34;4996818;28;20459;-67
2024/03/15 06:22:31;;;;;;;14.13;4.30;;;;;;;9.52;100.00;100380.06;4996763;28;20861;-67
2024/03/15 06:24:59;;;;;;;4.23;2.77;;;;;;;9.54;100.00;100377.84;4996945;28;20463;-67
2024/03/15 06:27:26;;;;;;;11.43;3.80;;;;;;;9.58;100.00;100387.75;4997067;28;20428;-67
2024/03/15 06:29:55;;;;;;;7.93;3.93;;;;;;;9.63;100.00;100388.75;4996999;28;20547;-67
2024/03/15 06:32:26;;;;;;;12.17;4.20;;;;;;;9.65;100.00;100386.53;4997075;28;20518;-67
2024/03/15 06:34:53;;;;;;;10.03;4.13;;;;;;;9.66;100.00;100385.47;4997460;28;20523;-67
2024/03/15 06:37:22;;;;;;;7.13;3.60;;;;;;;9.70;100.00;100384.56;4996466;28;21031;-67
2024/03/15 06:40:03;;;;;;;11.10;3.53;;;;;;;9.76;100.00;100394.19;4997010;28;20870;-68
2024/03/15 06:42:59;;;;;;;7.70;3.57;;;;;;;9.79;100.00;100390.88;4998677;28;20543;-67
2024/03/15 06:45:36;;;;;;;7.07;3.60;;;;;;;9.91;100.00;100384.16;5000848;28;20539;-67
2024/03/15 06:48:03;;;;;;;8.50;4.00;;;;;;;9.96;100.00;100386.75;4998108;28;20516;-70
2024/03/15 06:50:48;;;;;;;7.60;3.70;;;;;;;10.02;100.00;100382.84;4996367;28;20929;-69
2024/03/15 06:53:16;;;;;;;6.60;3.50;;;;;;;10.09;100.00;100383.22;4999065;28;20546;-67
2024/03/15 06:55:43;;;;;;;7.13;3.80;;;;;;;10.16;100.00;100380.94;4996725;28;20471;-69
2024/03/15 06:58:10;;;;;;;4.77;2.60;;;;;;;10.20;100.00;100373.00;4996525;28;20440;-68
2024/03/15 07:00:37;;;;;;;14.50;5.07;;;;;;;10.28;100.00;100365.00;4996474;28;20444;-68
2024/03/15 07:03:07;;;;;;;8.67;3.60;;;;;;;10.38;100.00;100371.31;4996175;28;20488;-68
2024/03/15 07:05:34;;;;;;;7.70;3.70;;;;;;;10.50;100.00;100368.88;4996503;28;20444;-67
2024/03/15 07:08:01;;;;;;;10.83;5.00;;;;;;;10.58;100.00;100376.22;4996411;28;20534;-66
2024/03/15 07:10:27;;;;;;;5.90;3.90;;;;;;;10.65;100.00;100376.63;4996000;28;20928;-66
2024/03/15 07:12:54;;;;;;;9.83;5.30;;;;;;;10.73;100.00;100384.03;4996143;28;20460;-66
2024/03/15 07:15:21;;;;;;;7.37;4.07;;;;;;;10.82;100.00;100382.19;4996427;28;20494;-65
2024/03/15 07:17:48;;;;;;;9.47;4.50;;;;;;;10.91;100.00;100384.16;4996277;28;20531;-67
2024/03/15 07:20:15;;;;;;;9.70;4.57;;;;;;;10.94;100.00;100370.81;4996176;28;20527;-66
2024/03/15 07:22:41;;;;;;;9.40;4.30;;;;;;;11.00;100.00;100382.31;4996610;28;20582;-66
2024/03/15 07:25:10;;;;;;;12.87;4.93;;;;;;;11.02;100.00;100372.78;5018965;22;20493;-66
2024/03/15 07:27:37;;;;;;;11.07;4.93;;;;;;;11.06;100.00;100373.72;5020133;28;20423;-68
2024/03/15 07:30:05;;;;;;;9.23;4.63;;;;;;;11.09;100.00;100378.53;5019782;28;20443;-68
2024/03/15 07:32:31;;;;;;;11.37;4.17;;;;;;;11.19;100.00;100379.38;5020048;28;20470;-68
2024/03/15 07:35:00;;;;;;;12.90;4.43;;;;;;;11.23;100.00;100381.16;5019403;28;21006;-69
2024/03/15 07:37:27;;;;;;;8.90;4.83;;;;;;;11.26;100.00;100375.13;5019681;28;20451;-67
2024/03/15 07:39:54;;;;;;;11.13;4.87;;;;;;;11.30;100.00;100365.28;5019921;28;20862;-66
2024/03/15 07:42:21;;;;;;;12.17;4.50;;;;;;;11.34;100.00;100371.69;5019630;28;20467;-67
2024/03/15 07:44:48;;;;;;;10.57;4.77;;;;;;;11.43;100.00;100374.44;5019553;28;20435;-66
2024/03/15 07:47:15;;;;;;;9.10;4.40;;;;;;;11.50;100.00;100380.19;5019328;28;20919;-66
2024/03/15 07:49:42;;;;;;;8.93;5.07;;;;;;;11.61;100.00;100369.88;5019544;28;20454;-66
2024/03/15 07:52:09;;;;;;;8.70;4.23;;;;;;;11.68;100.00;100367.50;5019262;28;20455;-65
2024/03/15 07:54:35;;;;;;;11.53;5.30;;;;;;;11.78;100.00;100364.53;5019379;28;20534;-65
2024/03/15 07:57:02;;;;;;;6.50;3.30;;;;;;;11.87;99.36;100367.28;5019024;28;20471;-66
2024/03/15 07:59:29;;;;;;;12.83;5.40;;;;;;;11.96;99.13;100375.47;5019088;28;20890;-66
2024/03/15 08:01:58;;;;;;;6.70;3.63;;;;;;;12.06;97.84;100369.72;5019172;28;20462;-67
2024/03/15 08:04:25;;;;;;;11.70;5.17;;;;;;;12.18;97.99;100383.50;5019202;28;21053;-65
2024/03/15 08:06:52;;;;;;;9.33;4.67;;;;;;;12.27;96.77;100376.16;5019182;28;20439;-65
2024/03/15 08:09:19;;;;;;;8.53;4.33;;;;;;;12.31;95.85;100370.91;5018762;28;20446;-65
2024/03/15 08:11:46;;;;;;;8.60;4.33;;;;;;;12.40;95.63;100366.28;5018883;28;20458;-66
2024/03/15 08:14:13;;;;;;;10.30;4.83;;;;;;;12.48;95.53;100367.38;5018691;28;20991;-65
2024/03/15 08:16:41;;;;;;;11.70;4.90;;;;;;;12.49;95.47;100367.09;5018895;28;20927;-66
2024/03/15 08:19:08;;;;;;;11.80;4.57;;;;;;;12.54;95.16;100364.22;5019199;28;20442;-66
2024/03/15 08:21:35;;;;;;;8.60;4.67;;;;;;;12.62;95.09;100374.28;5018885;28;20530;-66
2024/03/15 08:24:04;;;;;;;6.97;3.80;;;;;;;12.60;94.50;100371.06;5018519;28;20487;-66
2024/03/15 08:26:31;;;;;;;9.40;4.73;;;;;;;12.63;94.04;100375.06;5018825;28;20458;-66
2024/03/15 08:28:58;;;;;;;8.00;4.07;;;;;;;12.64;93.29;100373.94;5018793;28;20935;-66
2024/03/15 08:31:25;;;;;;;7.50;3.50;;;;;;;12.56;94.52;100369.31;5018486;28;20466;-66
2024/03/15 08:33:52;;;;;;;8.70;3.87;;;;;;;12.65;94.95;100364.66;5018240;28;20510;-65
2024/03/15 08:36:19;;;;;;;8.90;4.47;;;;;;;12.71;95.48;100368.84;5018000;28;20497;-65
2024/03/15 08:38:46;;;;;;;10.90;4.50;;;;;;;12.80;94.60;100371.56;5018613;28;20522;-65
2024/03/15 08:41:12;;;;;;;8.40;4.00;;;;;;;12.95;93.12;100370.25;5018543;28;20947;-66
2024/03/15 08:43:39;;;;;;;10.70;4.73;;;;;;;12.98;93.00;100370.41;5018322;28;20514;-65
2024/03/15 08:46:06;;;;;;;8.97;3.87;;;;;;;13.06;93.16;100368.81;5018161;28;21165;-65
2024/03/15 08:48:33;;;;;;;9.57;3.97;;;;;;;13.13;92.51;100371.81;5018381;28;20439;-66
2024/03/15 08:51:03;;;;;;;6.23;3.87;;;;;;;13.22;91.64;100377.25;5018515;28;20443;-66
2024/03/15 08:53:29;;;;;;;8.27;4.00;;;;;;;13.25;91.20;100376.63;5018335;28;20882;-67
2024/03/15 08:55:58;;;;;;;8.73;4.33;;;;;;;13.23;91.20;100376.94;5018404;28;20439;-67
2024/03/15 08:58:26;;;;;;;7.40;3.83;;;;;;;13.22;92.31;100374.53;5018462;28;20451;-66
2024/03/15 09:00:53;;;;;;;7.70;3.90;;;;;;;13.36;91.56;100377.88;5018463;28;20443;-66
2024/03/15 09:03:19;;;;;;;6.80;4.10;;;;;;;13.41;91.04;100382.34;5017930;28;20643;-67
2024/03/15 09:05:46;;;;;;;6.60;3.90;;;;;;;13.49;91.39;100382.31;5018127;28;20447;-67
2024/03/15 09:08:13;;;;;;;12.13;4.23;;;;;;;13.57;89.96;100386.91;5018210;28;20530;-67
2024/03/15 09:10:40;;;;;;;9.73;3.67;;;;;;;13.60;89.03;100389.00;5018030;28;20454;-68
2024/03/15 09:13:06;;;;;;;9.00;3.90;;;;;;;13.63;88.99;100379.38;5017929;28;20982;-67
2024/03/15 09:15:35;;;;;;;12.33;4.20;;;;;;;13.63;89.23;100382.09;5017916;28;20439;-67
2024/03/15 09:18:02;;;;;;;5.90;2.70;;;;;;;13.68;88.85;100383.84;5018149;28;20448;-67
2024/03/15 09:20:33;;;;;;;10.40;4.60;;;;;;;13.69;88.20;100388.97;5017882;28;20447;-67
2024/03/15 09:23:01;;;;;;;9.50;3.33;;;;;;;13.69;89.18;100386.25;5018258;28;20967;-67
2024/03/15 09:25:29;;;;;;;12.03;3.93;;;;;;;13.78;89.35;100381.56;5017674;28;20458;-67
2024/03/15 09:27:57;;;;;;;6.20;3.67;;;;;;;13.88;88.81;100385.84;5017934;28;20443;-67
2024/03/15 09:30:29;;;;;;;9.97;3.63;;;;;;;14.00;87.98;100387.88;5017715;28;20446;-67
2024/03/15 09:32:56;;;;;;;6.83;3.33;;;;;;;14.12;86.89;100394.22;5018279;28;20471;-67
2024/03/15 09:35:23;;;;;;;5.87;2.97;;;;;;;14.18;86.33;100381.19;5017535;28;20489;-67
2024/03/15 09:37:51;;;;;;;6.80;3.30;;;;;;;14.27;84.92;100392.03;5017611;28;20444;-67
2024/03/15 09:40:18;;;;;;;7.00;3.23;;;;;;;14.35;84.55;100385.72;5017221;28;20448;-67
2024/03/15 09:42:47;;;;;;;12.80;4.10;;;;;;;14.39;84.75;100387.47;5017256;28;20470;-67
2024/03/15 09:45:13;;;;;;;6.97;3.23;;;;;;;14.49;84.59;100390.94;5017601;28;20428;-66
2024/03/15 09:47:41;;;;;;;6.27;3.13;;;;;;;14.58;82.94;100383.50;5017677;28;20443;-68
2024/03/15 09:50:11;;;;;;;6.93;3.73;;;;;;;14.64;83.31;100379.44;5017289;28;20450;-67
2024/03/15 09:52:38;;;;;;;5.43;2.73;;;;;;;14.70;83.50;100382.75;5017467;28;20463;-67
2024/03/15 09:55:10;;;;;;;6.03;3.00;;;;;;;14.81;82.85;100376.56;5017474;28;20526;-67
2024/03/15 09:57:37;;;;;;;5.53;2.80;;;;;;;14.86;80.72;100372.84;5017527;28;20482;-67
2024/03/15 10:00:05;;;;;;;5.60;3.17;;;;;;;14.94;81.82;100368.44;5017189;28;20442;-68
2024/03/15 10:02:31;;;;;;;5.77;3.20;;;;;;;14.98;80.79;100361.97;5016940;28;20538;-68
2024/03/15 10:05:00;;;;;;;6.00;3.20;;;;;;;14.99;80.43;100360.03;5016904;28;20506;-68
2024/03/15 10:07:28;;;;;;;3.60;2.17;;;;;;;15.02;80.97;100365.63;5017328;28;20539;-68
2024/03/15 10:09:55;;;;;;;6.10;2.80;;;;;;;15.02;80.43;100360.19;5016979;28;20453;-68
2024/03/15 10:12:21;;;;;;;5.93;2.90;;;;;;;14.99;80.46;100369.03;5016844;28;20540;-68
2024/03/15 10:14:48;;;;;;;9.20;3.80;;;;;;;14.88;81.27;100362.41;5017040;28;20598;-68
2024/03/15 10:17:15;;;;;;;8.50;3.03;;;;;;;14.87;81.64;100364.34;5016506;28;20447;-68
2024/03/15 10:19:41;;;;;;;4.23;2.37;;;;;;;14.87;82.21;100364.34;5016785;28;20470;-68
2024/03/15 10:22:08;;;;;;;7.30;3.50;;;;;;;14.92;82.56;100357.06;5016897;28;20495;-68
2024/03/15 10:24:37;;;;;;;5.13;2.13;;;;;;;14.97;82.24;100367.78;5016263;28;21073;-68
2024/03/15 10:27:05;;;;;;;13.33;3.40;;;;;;;15.01;82.11;100358.59;5016970;28;20451;-68
2024/03/15 10:29:32;;;;;;;8.37;3.20;;;;;;;15.10;81.91;100359.28;5016813;28;20438;-68
2024/03/15 10:31:59;;;;;;;5.20;2.60;;;;;;;15.18;81.87;100351.34;5016525;28;20438;-68
2024/03/15 10:34:25;;;;;;;4.83;2.87;;;;;;;15.36;81.51;100359.00;5016552;28;20439;-68
2024/03/15 10:36:52;;;;;;;5.60;3.00;;;;;;;15.53;80.45;100366.19;5016523;28;20478;-69
2024/03/15 10:39:20;;;;;;;5.40;2.80;;;;;;;15.68;79.57;100359.31;5016167;28;20526;-68
2024/03/15 10:41:48;;;;;;;7.80;3.20;;;;;;;15.77;78.79;100357.25;5016633;28;20494;-68
2024/03/15 10:44:15;;;;;;;5.93;2.27;;;;;;;15.87;78.75;100350.53;5016498;28;20491;-66
2024/03/15 10:46:41;;;;;;;5.80;3.00;;;;;;;15.94;77.80;100344.47;5016382;28;20445;-66
2024/03/15 10:49:08;;;;;;;6.73;3.30;;;;;;;16.12;78.39;100352.09;5016387;28;20990;-67
2024/03/15 10:51:36;;;;;;;8.17;3.27;;;;;;;16.33;75.44;100357.41;5016254;28;20978;-67
2024/03/15 10:54:04;;;;;;;6.90;3.00;;;;;;;16.45;74.40;100358.53;5015960;28;20463;-66
2024/03/15 10:56:31;;;;;;;8.97;3.97;;;;;;;16.53;74.97;100354.84;5016494;28;20450;-67
2024/03/15 10:58:57;;;;;;;6.83;3.47;;;;;;;16.76;72.98;100363.34;5015927;28;20530;-67
2024/03/15 11:01:24;;;;;;;5.63;2.13;;;;;;;16.90;72.75;100356.31;5016666;28;20518;-68
2024/03/15 11:03:51;;;;;;;6.23;3.10;;;;;;;16.92;71.89;100352.47;5016000;28;20493;-67
2024/03/15 11:06:18;;;;;;;4.87;2.97;;;;;;;17.02;73.30;100354.69;5015844;28;20451;-68
2024/03/15 11:08:45;;;;;;;5.07;2.30;;;;;;;17.18;72.60;100341.84;5016057;28;20439;-68
2024/03/15 11:11:12;;;;;;;6.60;2.77;;;;;;;17.47;71.11;100348.03;5015686;28;20526;-68
2024/03/15 11:13:39;;;;;;;6.13;2.93;;;;;;;17.73;70.65;100347.47;5015767;28;21010;-68
2024/03/15 11:16:17;;;;;;;9.87;3.27;;;;;;;17.93;67.52;100356.56;5015737;28;20447;-68
2024/03/15 11:18:43;;;;;;;6.87;3.27;;;;;;;18.05;68.22;100351.00;5015715;28;20498;-68
2024/03/15 11:21:18;;;;;;;6.00;2.80;;;;;;;18.23;66.42;100351.38;5016101;28;20526;-67
2024/03/15 11:23:45;;;;;;;4.20;2.50;;;;;;;18.39;65.34;100347.44;5015984;28;20919;-67